Map

Track Data

SID SEASON NUMBER BASIN SUBBASIN NAME ISO_TIME NATURE LAT LON WMO_WIND WMO_PRES WMO_AGENCY TRACK_TYPE DIST2LAND LANDFALL IFLAG USA_AGENCY USA_ATCF_ID USA_LAT USA_LON USA_RECORD USA_STATUS USA_WIND USA_PRES USA_SSHS USA_R34_NE USA_R34_SE USA_R34_SW USA_R34_NW USA_R50_NE USA_R50_SE USA_R50_SW USA_R50_NW USA_R64_NE USA_R64_SE USA_R64_SW USA_R64_NW USA_POCI USA_ROCI USA_RMW USA_EYE TOKYO_LAT TOKYO_LON TOKYO_GRADE TOKYO_WIND TOKYO_PRES TOKYO_R50_DIR TOKYO_R50_LONG TOKYO_R50_SHORT TOKYO_R30_DIR TOKYO_R30_LONG TOKYO_R30_SHORT TOKYO_LAND CMA_LAT CMA_LON CMA_CAT CMA_WIND CMA_PRES HKO_LAT HKO_LON HKO_CAT HKO_WIND HKO_PRES NEWDELHI_LAT NEWDELHI_LON NEWDELHI_GRADE NEWDELHI_WIND NEWDELHI_PRES NEWDELHI_CI NEWDELHI_DP NEWDELHI_POCI REUNION_LAT REUNION_LON REUNION_TYPE REUNION_WIND REUNION_PRES REUNION_TNUM REUNION_CI REUNION_RMW REUNION_R34_NE REUNION_R34_SE REUNION_R34_SW REUNION_R34_NW REUNION_R50_NE REUNION_R50_SE REUNION_R50_SW REUNION_R50_NW REUNION_R64_NE REUNION_R64_SE REUNION_R64_SW REUNION_R64_NW BOM_LAT BOM_LON BOM_TYPE BOM_WIND BOM_PRES BOM_TNUM BOM_CI BOM_RMW BOM_R34_NE BOM_R34_SE BOM_R34_SW BOM_R34_NW BOM_R50_NE BOM_R50_SE BOM_R50_SW BOM_R50_NW BOM_R64_NE BOM_R64_SE BOM_R64_SW BOM_R64_NW BOM_ROCI BOM_POCI BOM_EYE BOM_POS_METHOD BOM_PRES_METHOD NADI_LAT NADI_LON NADI_CAT NADI_WIND NADI_PRES WELLINGTON_LAT WELLINGTON_LON WELLINGTON_WIND WELLINGTON_PRES DS824_LAT DS824_LON DS824_STAGE DS824_WIND DS824_PRES TD9636_LAT TD9636_LON TD9636_STAGE TD9636_WIND TD9636_PRES TD9635_LAT TD9635_LON TD9635_WIND TD9635_PRES TD9635_ROCI NEUMANN_LAT NEUMANN_LON NEUMANN_CLASS NEUMANN_WIND NEUMANN_PRES MLC_LAT MLC_LON MLC_CLASS MLC_WIND MLC_PRES USA_GUST BOM_GUST BOM_GUST_PER REUNION_GUST REUNION_GUST_PER USA_SEAHGT USA_SEARAD_NE USA_SEARAD_SE USA_SEARAD_SW USA_SEARAD_NW STORM_SPEED STORM_DIR
1935135N17292 1935 27 NA CS NOT_NAMED 1935-05-15 00:00:00 TS 17.0000 -68.5000 30 hurdat_atl main 134 111 O_____________ hurdat_atl AL011935 17.0000 -68.5000 TD 30 -1 7 315
1935135N17292 1935 27 NA CS NOT_NAMED 1935-05-15 03:00:00 TS 17.2375 -68.7474 main 111 81 P_____________ AL011935 17.2375 -68.7474 TD 30 -1 7 316
1935135N17292 1935 27 NA CS NOT_NAMED 1935-05-15 06:00:00 TS 17.5000 -69.0000 30 hurdat_atl main 81 61 O_____________ hurdat_atl AL011935 17.5000 -69.0000 TD 30 -1 8 320
1935135N17292 1935 27 NA CS NOT_NAMED 1935-05-15 09:00:00 TS 17.8125 -69.2576 main 69 24 P_____________ AL011935 17.8125 -69.2576 TD 30 -1 9 326
1935135N17292 1935 27 NA CS NOT_NAMED 1935-05-15 12:00:00 TS 18.2000 -69.5000 30 1006 hurdat_atl main 24 0 O_____________ hurdat_atl AL011935 18.2000 -69.5000 TD 30 1006 -1 10 333
1935135N17292 1935 27 NA NA NOT_NAMED 1935-05-15 15:00:00 TS 18.6700 -69.7150 main 0 0 P_____________ AL011935 18.6700 -69.7150 TD 30 -1 11 339
1935135N17292 1935 27 NA NA NOT_NAMED 1935-05-15 18:00:00 TS 19.2000 -69.9000 30 hurdat_atl main 0 0 O_____________ hurdat_atl AL011935 19.2000 -69.9000 TD 30 -1 11 343
1935135N17292 1935 27 NA NA NOT_NAMED 1935-05-15 21:00:00 TS 19.7350 -70.0651 main 11 11 P_____________ AL011935 19.7350 -70.0651 TD 30 -1 11 346
1935135N17292 1935 27 NA NA NOT_NAMED 1935-05-16 00:00:00 TS 20.3000 -70.2000 30 hurdat_atl main 69 69 O_____________ hurdat_atl AL011935 20.3000 -70.2000 TD 30 -1 12 349
1935135N17292 1935 27 NA NA NOT_NAMED 1935-05-16 03:00:00 TS 20.9075 -70.3150 main 126 126 P_____________ AL011935 20.9075 -70.3150 TD 30 -1 12 351
1935135N17292 1935 27 NA NA NOT_NAMED 1935-05-16 06:00:00 TS 21.5000 -70.4000 30 hurdat_atl main 191 191 O_____________ hurdat_atl AL011935 21.5000 -70.4000 TD 30 -1 11 352
1935135N17292 1935 27 NA NA NOT_NAMED 1935-05-16 09:00:00 TS 22.0375 -70.4874 main 246 246 P_____________ AL011935 22.0375 -70.4874 TD 32 -1 10 355
1935135N17292 1935 27 NA NA NOT_NAMED 1935-05-16 12:00:00 TS 22.5000 -70.5000 35 hurdat_atl main 296 296 O_____________ hurdat_atl AL011935 22.5000 -70.5000 TS 35 0 9 4
1935135N17292 1935 27 NA NA NOT_NAMED 1935-05-16 15:00:00 TS 22.8799 -70.4100 main 328 328 P_____________ AL011935 22.8799 -70.4100 TS 35 0 8 22
1935135N17292 1935 27 NA NA NOT_NAMED 1935-05-16 18:00:00 TS 23.2000 -70.2000 35 hurdat_atl main 364 364 O_____________ hurdat_atl AL011935 23.2000 -70.2000 TS 35 0 8 37
1935135N17292 1935 27 NA NA NOT_NAMED 1935-05-16 21:00:00 TS 23.5074 -69.9023 main 409 409 P_____________ AL011935 23.5074 -69.9023 TS 37 0 9 47
1935135N17292 1935 27 NA NA NOT_NAMED 1935-05-17 00:00:00 TS 23.8000 -69.5000 40 hurdat_atl main 461 461 O_____________ hurdat_atl AL011935 23.8000 -69.5000 TS 40 0 10 53
1935135N17292 1935 27 NA NA NOT_NAMED 1935-05-17 03:00:00 TS 24.0999 -69.0373 main 508 508 P_____________ AL011935 24.0999 -69.0373 TS 40 0 11 57
1935135N17292 1935 27 NA NA NOT_NAMED 1935-05-17 06:00:00 TS 24.4000 -68.5000 40 hurdat_atl main 557 557 O_____________ hurdat_atl AL011935 24.4000 -68.5000 TS 40 0 12 59
1935135N17292 1935 27 NA NA NOT_NAMED 1935-05-17 09:00:00 TS 24.6996 -67.9371 main 609 609 P_____________ AL011935 24.6996 -67.9371 TS 42 0 12 61
1935135N17292 1935 27 NA NA NOT_NAMED 1935-05-17 12:00:00 TS 25.0000 -67.3000 45 hurdat_atl main 664 664 O_____________ hurdat_atl AL011935 25.0000 -67.3000 TS 45 0 13 63
1935135N17292 1935 27 NA NA NOT_NAMED 1935-05-17 15:00:00 TS 25.2914 -66.6316 main 725 725 P_____________ AL011935 25.2914 -66.6316 TS 47 0 15 66
1935135N17292 1935 27 NA NA NOT_NAMED 1935-05-17 18:00:00 TS 25.6000 -65.8000 50 hurdat_atl main 790 790 O_____________ hurdat_atl AL011935 25.6000 -65.8000 TS 50 0 18 70
1935135N17292 1935 27 NA NA NOT_NAMED 1935-05-17 21:00:00 TS 25.9200 -64.7240 main 843 843 P_____________ AL011935 25.9200 -64.7240 TS 50 0 22 71
1935135N17292 1935 27 NA NA NOT_NAMED 1935-05-18 00:00:00 TS 26.3000 -63.5000 50 hurdat_atl main 909 909 O_____________ hurdat_atl AL011935 26.3000 -63.5000 TS 50 0 24 69
1935135N17292 1935 27 NA NA NOT_NAMED 1935-05-18 03:00:00 TS 26.7627 -62.2274 main 1001 1001 P_____________ AL011935 26.7627 -62.2274 TS 47 0 24 66
1935135N17292 1935 27 NA NA NOT_NAMED 1935-05-18 06:00:00 TS 27.3000 -61.0000 45 hurdat_atl main 1100 1100 O_____________ hurdat_atl AL011935 27.3000 -61.0000 TS 45 0 23 61
1935135N17292 1935 27 NA NA NOT_NAMED 1935-05-18 09:00:00 TS 27.8834 -59.9613 main 1205 1205 P_____________ AL011935 27.8834 -59.9613 TS 42 0 21 56
1935135N17292 1935 27 NA NA NOT_NAMED 1935-05-18 12:00:00 TS 28.5000 -59.0000 40 hurdat_atl main 1313 1313 O_____________ hurdat_atl AL011935 28.5000 -59.0000 TS 40 0 21 55
1935135N17292 1935 27 NA NA NOT_NAMED 1935-05-18 15:00:00 TS 29.0918 -57.9986 main 1422 1422 P_____________ AL011935 29.0918 -57.9986 TS 37 0 21 56
1935135N17292 1935 27 NA NA NOT_NAMED 1935-05-18 18:00:00 TS 29.7000 -57.0000 35 hurdat_atl main 1533 1533 O_____________ hurdat_atl AL011935 29.7000 -57.0000 TS 35 0 21 54
1935135N17292 1935 27 NA NA NOT_NAMED 1935-05-18 21:00:00 TS 30.3415 -56.0029 main 1645 1645 P_____________ AL011935 30.3415 -56.0029 TS 32 -1 22 53
1935135N17292 1935 27 NA NA NOT_NAMED 1935-05-19 00:00:00 ET 31.0000 -55.0000 30 hurdat_atl main 1659 O_____________ hurdat_atl AL011935 31.0000 -55.0000 EX 30 -4 22 53

About IBTrACS Database

This database is a web-friendly format of International Best Track Archive for Climate Stewardship (IBTrACS), a global best track data archive curated by NOAA dating back to 1842.

Updated: 2021-10-27